Time;durP1;ratioP1;P1;durP2;ratioP2;P2;SDS_P1;SDS_P2;PMS_P1;PMS_P2;Temp;Humidity;BMP_temperature;BMP_pressure;BME280_temperature;BME280_humidity;BME280_pressure;Samples;Min_cycle;Max_cycle;Signal;HPM_P1;HPM_P2
2023/02/18 00:00:06;;;;;;;29.15;3.58;;;6.30;99.90;;;;;;5061412;28;20021;-72
2023/02/18 00:02:32;;;;;;;24.83;2.97;;;6.20;99.90;;;;;;5062598;28;20045;-74
2023/02/18 00:04:58;;;;;;;24.70;2.95;;;6.20;99.90;;;;;;5063236;28;20025;-71
2023/02/18 00:07:24;;;;;;;19.40;3.28;;;6.10;99.90;;;;;;5063839;28;20079;-70
2023/02/18 00:09:49;;;;;;;19.70;3.25;;;6.20;99.90;;;;;;5063174;28;20031;-73
2023/02/18 00:12:15;;;;;;;32.20;3.45;;;6.20;99.90;;;;;;5063267;28;20120;-70
2023/02/18 00:14:40;;;;;;;25.95;3.15;;;6.20;99.90;;;;;;5061863;28;20032;-72
2023/02/18 00:17:06;;;;;;;26.80;3.45;;;6.20;99.90;;;;;;5062155;28;20025;-70
2023/02/18 00:19:31;;;;;;;28.70;3.63;;;6.20;99.90;;;;;;5060922;28;20049;-69
2023/02/18 00:21:57;;;;;;;22.63;3.63;;;6.20;99.90;;;;;;5062748;28;20029;-71
2023/02/18 00:24:22;;;;;;;22.88;3.60;;;6.20;99.90;;;;;;5061839;28;20060;-71
2023/02/18 00:26:52;;;;;;;18.70;3.33;;;6.20;99.90;;;;;;5061380;28;20043;-72
2023/02/18 00:29:18;;;;;;;30.27;3.50;;;6.30;99.90;;;;;;5062836;28;20413;-72
2023/02/18 00:31:44;;;;;;;20.80;3.05;;;6.30;99.90;;;;;;5061869;28;20017;-71
2023/02/18 00:34:11;;;;;;;26.52;3.33;;;6.30;99.90;;;;;;5062029;28;20036;-71
2023/02/18 00:36:37;;;;;;;23.38;3.00;;;6.30;99.90;;;;;;5062621;28;20445;-71
2023/02/18 00:39:06;;;;;;;22.10;3.55;;;6.30;99.90;;;;;;5062827;28;20092;-71
2023/02/18 00:41:32;;;;;;;27.08;3.47;;;6.40;99.90;;;;;;5061203;28;20044;-71
2023/02/18 00:43:58;;;;;;;17.15;2.58;;;6.40;99.90;;;;;;5062616;28;20112;-72
2023/02/18 00:46:24;;;;;;;25.90;3.13;;;6.40;99.90;;;;;;5063360;28;20044;-72
2023/02/18 00:48:50;;;;;;;29.50;3.28;;;6.50;99.90;;;;;;5063504;28;20033;-72
2023/02/18 00:51:16;;;;;;;19.08;3.20;;;6.40;99.90;;;;;;5063398;28;20032;-69
2023/02/18 00:53:42;;;;;;;21.55;2.90;;;6.50;99.90;;;;;;5061807;28;20036;-70
2023/02/18 00:56:07;;;;;;;21.52;3.05;;;6.50;99.90;;;;;;5062105;28;20056;-73
2023/02/18 00:58:34;;;;;;;19.02;2.83;;;6.50;99.90;;;;;;5061623;28;20425;-70
2023/02/18 01:01:00;;;;;;;18.38;2.88;;;6.50;99.90;;;;;;5061691;28;20025;-70
2023/02/18 01:03:26;;;;;;;18.42;2.80;;;6.50;99.90;;;;;;5061939;28;21326;-71
2023/02/18 01:05:52;;;;;;;19.77;2.95;;;6.50;99.90;;;;;;5063266;28;20041;-75
2023/02/18 01:08:20;;;;;;;16.50;2.78;;;6.50;99.90;;;;;;5062995;28;20029;-70
2023/02/18 01:10:47;;;;;;;22.05;3.65;;;6.50;99.90;;;;;;5062470;28;20039;-71
2023/02/18 01:13:15;;;;;;;23.92;2.90;;;6.50;99.90;;;;;;5061817;28;20032;-70
2023/02/18 01:15:41;;;;;;;14.98;2.33;;;6.50;99.90;;;;;;5062627;28;20025;-71
2023/02/18 01:18:08;;;;;;;16.48;2.40;;;6.50;99.90;;;;;;5061498;28;20029;-72
2023/02/18 01:20:43;;;;;;;19.77;2.72;;;6.50;99.90;;;;;;5062033;28;20024;-73
2023/02/18 01:23:10;;;;;;;16.30;2.58;;;6.50;99.90;;;;;;5061471;28;20571;-72
2023/02/18 01:25:36;;;;;;;25.52;2.97;;;6.50;99.90;;;;;;5062784;28;20500;-71
2023/02/18 01:28:04;;;;;;;15.73;2.70;;;6.50;99.90;;;;;;5060349;28;20041;-72
2023/02/18 01:30:29;;;;;;;19.25;2.85;;;6.60;99.90;;;;;;5062337;28;20021;-72
2023/02/18 01:32:56;;;;;;;18.65;2.80;;;6.60;99.90;;;;;;5063059;28;20033;-72
2023/02/18 01:35:23;;;;;;;19.38;2.53;;;6.60;99.90;;;;;;5060926;28;20033;-73
2023/02/18 01:37:48;;;;;;;21.75;2.35;;;6.60;99.90;;;;;;5060935;28;20124;-72
2023/02/18 01:40:16;;;;;;;15.25;2.05;;;6.60;99.90;;;;;;5061832;28;20021;-72
2023/02/18 01:42:42;;;;;;;26.58;2.85;;;6.70;99.90;;;;;;5062552;28;20033;-70
2023/02/18 01:45:33;;;;;;;18.67;3.08;;;6.70;99.90;;;;;;5060663;28;20017;-70
2023/02/18 01:48:21;;;;;;;14.48;2.75;;;6.70;99.90;;;;;;5062458;28;20029;-74
2023/02/18 01:50:55;;;;;;;25.20;2.45;;;6.70;99.90;;;;;;5061691;28;20389;-70
2023/02/18 01:53:30;;;;;;;23.42;3.05;;;6.70;99.90;;;;;;5062162;28;20063;-74
2023/02/18 01:55:56;;;;;;;22.88;2.88;;;6.70;99.90;;;;;;5061307;28;20048;-72
2023/02/18 01:58:22;;;;;;;24.45;2.58;;;6.70;99.90;;;;;;5061391;28;20104;-71
2023/02/18 02:00:47;;;;;;;18.73;2.95;;;6.80;99.90;;;;;;5060433;28;20029;-71
2023/02/18 02:03:13;;;;;;;30.75;3.25;;;6.80;99.90;;;;;;5062234;28;20107;-74
2023/02/18 02:05:38;;;;;;;19.63;2.55;;;6.70;99.90;;;;;;5061799;28;20052;-74
2023/02/18 02:08:05;;;;;;;19.38;3.13;;;6.80;99.90;;;;;;5061355;28;20040;-71
2023/02/18 02:10:47;;;;;;;26.83;2.97;;;6.80;99.90;;;;;;5061146;28;20031;-72
2023/02/18 02:13:37;;;;;;;22.70;2.95;;;6.80;99.90;;;;;;5060285;28;20037;-73
2023/02/18 02:16:20;;;;;;;21.20;3.20;;;6.80;99.90;;;;;;5060423;28;20029;-72
2023/02/18 02:19:09;;;;;;;15.25;2.78;;;6.80;99.90;;;;;;5061156;28;20033;-70
2023/02/18 02:21:48;;;;;;;16.23;2.45;;;6.90;99.90;;;;;;5061246;28;20024;-70
2023/02/18 02:24:43;;;;;;;25.02;3.03;;;6.90;99.90;;;;;;5060048;28;20049;-72
2023/02/18 02:27:20;;;;;;;;;;;6.90;99.90;;;;;;5061761;28;20037;-70
2023/02/18 02:30:11;;;;;;;16.58;3.10;;;6.90;99.90;;;;;;5061460;28;19913;-71
2023/02/18 02:32:58;;;;;;;24.80;3.25;;;6.90;99.90;;;;;;5060595;28;20025;-71
2023/02/18 02:35:44;;;;;;;19.30;2.50;;;6.90;99.90;;;;;;5061369;28;20032;-69
2023/02/18 02:38:37;;;;;;;16.42;3.08;;;6.90;99.90;;;;;;5059305;28;20052;-70
2023/02/18 02:41:23;;;;;;;25.10;4.13;;;6.90;99.90;;;;;;5059539;28;20063;-72
2023/02/18 02:44:09;;;;;;;16.85;2.88;;;6.90;99.90;;;;;;5059955;28;20032;-72
2023/02/18 02:46:40;;;;;;;24.80;2.70;;;7.00;99.90;;;;;;5060623;28;20055;-72
2023/02/18 02:49:15;;;;;;;20.77;3.13;;;7.00;99.90;;;;;;5061216;28;20029;-69
2023/02/18 02:52:02;;;;;;;19.63;3.13;;;7.00;99.90;;;;;;5060306;28;20562;-71
2023/02/18 02:54:28;;;;;;;18.33;2.60;;;7.00;99.90;;;;;;5059877;28;20028;-71
2023/02/18 02:57:12;;;;;;;15.13;2.75;;;7.00;99.90;;;;;;5061444;28;20056;-72
2023/02/18 02:59:41;;;;;;;12.45;1.98;;;7.00;99.90;;;;;;5061066;28;20154;-70
2023/02/18 03:02:26;;;;;;;15.50;2.38;;;7.10;99.90;;;;;;5059811;28;20040;-72
2023/02/18 03:05:12;;;;;;;18.38;2.08;;;7.10;99.90;;;;;;5060802;28;20033;-72
2023/02/18 03:08:03;;;;;;;7.80;1.80;;;7.10;99.90;;;;;;5059001;28;20033;-72
2023/02/18 03:10:52;;;;;;;17.48;2.42;;;7.10;99.90;;;;;;5060558;28;20462;-69
2023/02/18 03:13:27;;;;;;;19.67;2.85;;;7.10;99.90;;;;;;5061314;28;20025;-69
2023/02/18 03:16:01;;;;;;;12.45;2.53;;;7.10;99.90;;;;;;5061286;28;20048;-71
2023/02/18 03:18:37;;;;;;;19.20;2.17;;;7.10;99.90;;;;;;5059759;28;20076;-70
2023/02/18 03:21:05;;;;;;;19.73;2.60;;;7.10;99.90;;;;;;5060440;28;20044;-70
2023/02/18 03:23:45;;;;;;;19.15;2.47;;;7.10;99.90;;;;;;5061592;28;20112;-71
2023/02/18 03:26:14;;;;;;;20.60;2.33;;;7.10;99.90;;;;;;5063430;28;20037;-72
2023/02/18 03:28:41;;;;;;;16.70;2.60;;;7.10;99.90;;;;;;5063809;28;20021;-69
2023/02/18 03:31:15;;;;;;;23.75;2.90;;;7.10;99.90;;;;;;5064826;28;20028;-68
2023/02/18 03:33:47;;;;;;;;;;;7.10;99.90;;;;;;5064296;28;20032;-71
2023/02/18 03:36:13;;;;;;;15.20;2.47;;;7.10;99.90;;;;;;5062831;28;19905;-69
2023/02/18 03:38:46;;;;;;;11.50;1.95;;;7.10;99.90;;;;;;5064294;28;20028;-71
2023/02/18 03:41:12;;;;;;;22.10;2.60;;;7.10;99.90;;;;;;5064400;28;20017;-68
2023/02/18 03:43:40;;;;;;;16.20;2.78;;;7.10;99.90;;;;;;5064060;28;20493;-71
2023/02/18 03:46:06;;;;;;;18.95;2.50;;;7.10;99.90;;;;;;5063949;28;20032;-70
2023/02/18 03:48:31;;;;;;;15.45;2.58;;;7.10;99.90;;;;;;5064532;28;20021;-71
2023/02/18 03:50:57;;;;;;;16.98;2.05;;;7.10;99.90;;;;;;5063443;28;20039;-69
2023/02/18 03:53:22;;;;;;;16.42;2.50;;;7.20;99.90;;;;;;5064593;28;20033;-69
2023/02/18 03:55:48;;;;;;;16.13;2.40;;;7.10;99.90;;;;;;5063402;28;20017;-71
2023/02/18 03:58:13;;;;;;;17.30;2.97;;;7.10;99.90;;;;;;5063957;28;20025;-69
2023/02/18 04:00:39;;;;;;;19.52;2.45;;;7.00;99.90;;;;;;5063965;28;20043;-69
2023/02/18 04:03:05;;;;;;;22.75;2.63;;;7.00;99.90;;;;;;5063933;28;20033;-70
2023/02/18 04:05:30;;;;;;;23.02;2.38;;;6.90;99.90;;;;;;5061935;28;20025;-72
2023/02/18 04:07:56;;;;;;;13.73;2.30;;;6.90;99.90;;;;;;5062234;28;20045;-69
2023/02/18 04:10:21;;;;;;;14.90;2.28;;;6.90;99.90;;;;;;5062456;28;20017;-69
2023/02/18 04:12:47;;;;;;;16.98;2.30;;;6.90;99.90;;;;;;5063683;28;20054;-71
2023/02/18 04:15:13;;;;;;;10.93;2.55;;;6.90;99.90;;;;;;5062137;28;20064;-70
2023/02/18 04:17:38;;;;;;;23.20;3.38;;;6.80;99.90;;;;;;5063580;28;20100;-70
2023/02/18 04:20:05;;;;;;;21.52;2.80;;;6.80;99.90;;;;;;5063744;28;20088;-71
2023/02/18 04:22:31;;;;;;;18.52;2.85;;;6.80;99.90;;;;;;5063589;28;20025;-71
2023/02/18 04:24:58;;;;;;;19.08;2.55;;;6.80;99.90;;;;;;5062018;28;20136;-71
2023/02/18 04:27:24;;;;;;;14.38;2.33;;;6.80;99.90;;;;;;5062389;28;20055;-72
2023/02/18 04:29:49;;;;;;;16.50;2.60;;;6.70;99.90;;;;;;5061511;28;20084;-71
2023/02/18 04:32:15;;;;;;;16.65;2.70;;;6.70;99.90;;;;;;5063133;28;20088;-72
2023/02/18 04:34:40;;;;;;;26.98;2.85;;;6.70;99.90;;;;;;5061617;28;20031;-71
2023/02/18 04:37:06;;;;;;;19.55;2.53;;;6.70;99.90;;;;;;5061362;28;20025;-72
2023/02/18 04:39:32;;;;;;;18.92;2.72;;;6.70;99.90;;;;;;5061765;28;20331;-71
2023/02/18 04:41:57;;;;;;;18.63;3.08;;;6.70;99.90;;;;;;5061847;28;20397;-71
2023/02/18 04:44:23;;;;;;;25.77;3.38;;;6.70;99.90;;;;;;5063359;28;20063;-71
2023/02/18 04:46:48;;;;;;;20.33;2.42;;;6.70;99.90;;;;;;5063130;28;20044;-73
2023/02/18 04:49:14;;;;;;;24.63;3.20;;;6.70;99.90;;;;;;5062375;28;20492;-72
2023/02/18 04:51:40;;;;;;;22.38;2.88;;;6.70;99.90;;;;;;5062855;28;20021;-72
2023/02/18 04:54:05;;;;;;;18.17;2.75;;;6.70;99.90;;;;;;5063220;28;20029;-74
2023/02/18 04:56:31;;;;;;;18.20;2.90;;;6.70;99.90;;;;;;5062998;28;20489;-73
2023/02/18 04:58:56;;;;;;;19.70;2.67;;;6.60;99.90;;;;;;5061048;28;20033;-74
2023/02/18 05:01:22;;;;;;;20.58;3.15;;;6.60;99.90;;;;;;5062868;28;20052;-73
2023/02/18 05:03:47;;;;;;;22.73;2.75;;;6.60;99.90;;;;;;5061202;28;20029;-73
2023/02/18 05:06:13;;;;;;;19.65;2.53;;;6.60;99.90;;;;;;5062960;28;20120;-72
2023/02/18 05:08:38;;;;;;;18.60;2.53;;;6.60;99.90;;;;;;5063137;28;20028;-73
2023/02/18 05:11:06;;;;;;;21.95;2.70;;;6.60;99.90;;;;;;5062946;28;20025;-74
2023/02/18 05:13:31;;;;;;;17.27;2.50;;;6.60;99.90;;;;;;5062853;28;20017;-73
2023/02/18 05:15:57;;;;;;;22.00;3.28;;;6.60;99.90;;;;;;5062843;28;20040;-74
2023/02/18 05:18:22;;;;;;;17.98;2.55;;;6.60;99.90;;;;;;5061303;28;20021;-72
2023/02/18 05:20:48;;;;;;;18.92;3.10;;;6.60;99.90;;;;;;5062410;28;20025;-72
2023/02/18 05:23:14;;;;;;;17.73;3.00;;;6.50;99.90;;;;;;5061815;28;20080;-72
2023/02/18 05:25:39;;;;;;;22.35;3.00;;;6.60;99.90;;;;;;5061035;28;20028;-73
2023/02/18 05:28:05;;;;;;;21.42;3.10;;;6.60;99.90;;;;;;5062547;28;20051;-73
2023/02/18 05:30:30;;;;;;;19.30;2.55;;;6.50;99.90;;;;;;5061250;28;20036;-72
2023/02/18 05:32:56;;;;;;;16.70;3.25;;;6.60;99.90;;;;;;5061155;28;20203;-72
2023/02/18 05:35:22;;;;;;;15.25;2.58;;;6.50;99.90;;;;;;5062087;28;20104;-73
2023/02/18 05:37:47;;;;;;;24.58;3.05;;;6.50;99.90;;;;;;5062114;28;20531;-72
2023/02/18 05:40:13;;;;;;;23.67;2.90;;;6.60;99.90;;;;;;5060370;28;20020;-71
2023/02/18 05:42:38;;;;;;;21.45;2.65;;;6.50;99.90;;;;;;5060676;28;20048;-71
2023/02/18 05:45:04;;;;;;;18.85;2.63;;;6.50;99.90;;;;;;5061459;28;20137;-71
2023/02/18 05:47:30;;;;;;;15.30;3.05;;;6.60;99.90;;;;;;5059944;28;20040;-71
2023/02/18 05:49:55;;;;;;;17.38;3.35;;;6.50;99.90;;;;;;5061880;28;20028;-71
2023/02/18 05:52:21;;;;;;;23.33;3.65;;;6.50;99.90;;;;;;5062062;28;20096;-71
2023/02/18 05:54:47;;;;;;;15.75;3.75;;;6.50;99.90;;;;;;5060633;28;20029;-70
2023/02/18 05:57:14;;;;;;;19.70;3.80;;;6.50;99.90;;;;;;5061320;28;20112;-70
2023/02/18 05:59:39;;;;;;;18.88;3.72;;;6.60;99.90;;;;;;5061414;28;20037;-70
2023/02/18 06:02:05;;;;;;;21.33;4.15;;;6.60;99.90;;;;;;5059157;28;20021;-70
2023/02/18 06:04:30;;;;;;;29.50;5.25;;;6.60;99.90;;;;;;5061370;28;20385;-70
2023/02/18 06:06:56;;;;;;;30.67;6.03;;;6.60;99.90;;;;;;5060010;28;20079;-69
2023/02/18 06:09:22;;;;;;;30.83;5.07;;;6.60;99.90;;;;;;5060004;28;20033;-71
2023/02/18 06:11:47;;;;;;;25.08;5.70;;;6.60;99.90;;;;;;5060803;28;20024;-71
2023/02/18 06:14:13;;;;;;;26.00;5.72;;;6.60;99.90;;;;;;5061855;28;20023;-70
2023/02/18 06:16:38;;;;;;;27.83;6.22;;;6.60;99.90;;;;;;5062060;28;20032;-70
2023/02/18 06:19:04;;;;;;;25.75;5.47;;;6.60;99.90;;;;;;5061295;28;20029;-70
2023/02/18 06:21:30;;;;;;;28.38;5.32;;;6.60;99.90;;;;;;5060911;28;20024;-69
2023/02/18 06:23:55;;;;;;;27.17;5.95;;;6.60;99.90;;;;;;5057811;28;20041;-70
2023/02/18 06:26:21;;;;;;;33.60;5.78;;;6.60;99.90;;;;;;5061050;28;20029;-69
2023/02/18 06:28:46;;;;;;;22.60;4.72;;;6.70;99.90;;;;;;5060814;28;20410;-70
2023/02/18 06:31:13;;;;;;;40.25;6.03;;;6.70;99.90;;;;;;5061296;28;20064;-69
2023/02/18 06:33:39;;;;;;;31.38;5.80;;;6.70;99.90;;;;;;5061150;28;20029;-70
2023/02/18 06:36:07;;;;;;;24.63;5.70;;;6.70;99.90;;;;;;5059620;28;20088;-71
2023/02/18 06:38:40;;;;;;;33.35;5.93;;;6.70;99.90;;;;;;5060658;28;20021;-69
2023/02/18 06:41:06;;;;;;;38.97;5.47;;;6.70;99.90;;;;;;5060584;28;20155;-70
2023/02/18 06:43:32;;;;;;;27.13;5.15;;;6.70;99.90;;;;;;5057792;28;20079;-69
2023/02/18 06:45:57;;;;;;;29.77;6.07;;;6.70;99.90;;;;;;5059547;28;20029;-69
2023/02/18 06:48:23;;;;;;;28.75;6.00;;;6.70;99.90;;;;;;5060917;28;20126;-69
2023/02/18 06:50:49;;;;;;;32.75;6.55;;;6.70;99.90;;;;;;5058804;28;20032;-70
2023/02/18 06:53:18;;;;;;;27.75;5.93;;;6.70;99.90;;;;;;5056744;28;20040;-69
2023/02/18 06:55:44;;;;;;;29.60;6.30;;;6.70;99.90;;;;;;5059302;28;20013;-69
2023/02/18 06:58:11;;;;;;;51.90;7.22;;;6.70;99.90;;;;;;5050221;28;20779;-68
2023/02/18 07:00:37;;;;;;;43.85;8.82;;;6.70;99.90;;;;;;5053523;28;20029;-69
2023/02/18 07:03:03;;;;;;;39.60;9.68;;;6.70;99.90;;;;;;5054887;28;20043;-70
2023/02/18 07:05:29;;;;;;;44.75;9.65;;;6.60;99.90;;;;;;5055538;28;21055;-70
2023/02/18 07:07:55;;;;;;;34.70;9.27;;;6.60;99.90;;;;;;5056646;28;20037;-71
2023/02/18 07:10:21;;;;;;;50.20;10.70;;;6.60;99.90;;;;;;5057826;28;20036;-70
2023/02/18 07:12:46;;;;;;;35.65;10.30;;;6.60;99.90;;;;;;5059208;28;20051;-69
2023/02/18 07:15:12;;;;;;;49.47;11.30;;;6.60;99.90;;;;;;5059121;28;20061;-68
2023/02/18 07:17:38;;;;;;;56.22;9.75;;;6.60;99.90;;;;;;5057975;28;20078;-71
2023/02/18 07:20:05;;;;;;;54.15;11.90;;;6.60;99.90;;;;;;5059737;28;20100;-70
2023/02/18 07:22:30;;;;;;;79.53;12.48;;;6.50;99.90;;;;;;5059411;28;20086;-69
2023/02/18 07:24:56;;;;;;;72.60;12.85;;;6.60;99.90;;;;;;5058369;28;20080;-70
2023/02/18 07:27:22;;;;;;;62.55;11.55;;;6.50;99.90;;;;;;5059262;28;20033;-71
2023/02/18 07:29:48;;;;;;;55.05;12.75;;;6.50;99.90;;;;;;5060390;28;20025;-69
2023/02/18 07:32:15;;;;;;;59.08;14.55;;;6.50;99.90;;;;;;5056395;28;20495;-69
2023/02/18 07:34:41;;;;;;;69.45;16.25;;;6.50;99.90;;;;;;5058977;28;20079;-68
2023/02/18 07:37:08;;;;;;;60.78;16.80;;;6.50;99.90;;;;;;5060391;28;20033;-69
2023/02/18 07:39:43;;;;;;;54.88;15.05;;;6.50;99.90;;;;;;5060325;28;20097;-68
2023/02/18 07:42:13;;;;;;;75.13;17.13;;;6.60;99.90;;;;;;5059920;28;20025;-68
2023/02/18 07:44:39;;;;;;;63.47;15.55;;;6.60;99.90;;;;;;5058857;28;20112;-68
2023/02/18 07:47:06;;;;;;;59.75;17.30;;;6.60;99.90;;;;;;5060261;28;20100;-69
2023/02/18 07:49:32;;;;;;;91.38;19.13;;;6.60;99.90;;;;;;5060009;28;20025;-69
2023/02/18 07:51:58;;;;;;;57.10;17.67;;;6.60;99.90;;;;;;5055902;28;20064;-68
2023/02/18 07:54:23;;;;;;;68.47;16.50;;;6.70;99.90;;;;;;5057789;28;20096;-69
2023/02/18 07:56:49;;;;;;;97.32;20.23;;;6.70;99.90;;;;;;5058612;28;20077;-69
2023/02/18 07:59:15;;;;;;;74.35;19.38;;;6.60;99.90;;;;;;5060139;28;20021;-70
2023/02/18 08:01:41;;;;;;;78.63;19.25;;;6.70;99.90;;;;;;5058140;28;20051;-69
2023/02/18 08:04:07;;;;;;;79.40;18.38;;;6.70;99.90;;;;;;5060099;28;20021;-70
2023/02/18 08:06:41;;;;;;;127.13;22.50;;;6.70;99.90;;;;;;5060158;28;20071;-70
2023/02/18 08:09:07;;;;;;;;;;;6.80;99.90;;;;;;5060502;28;20024;-69
2023/02/18 08:11:33;;;;;;;107.65;22.00;;;6.80;99.90;;;;;;5063627;28;19913;-69
2023/02/18 08:13:59;;;;;;;80.88;20.73;;;6.80;99.90;;;;;;5063353;28;20024;-70
2023/02/18 08:16:25;;;;;;;137.90;26.75;;;6.80;99.90;;;;;;5063909;28;20025;-70
2023/02/18 08:18:52;;;;;;;142.02;29.25;;;6.80;99.90;;;;;;5063562;28;20142;-70
2023/02/18 08:21:19;;;;;;;182.50;35.70;;;6.90;99.90;;;;;;5062935;28;20021;-70
2023/02/18 08:23:45;;;;;;;168.13;37.03;;;6.90;99.90;;;;;;5059584;28;20099;-70
2023/02/18 08:26:12;;;;;;;173.93;39.33;;;7.00;99.90;;;;;;5062994;28;20107;-69
2023/02/18 08:28:37;;;;;;;159.20;39.00;;;7.10;99.90;;;;;;5061422;28;20017;-70
2023/02/18 08:31:03;;;;;;;164.50;39.90;;;7.10;99.90;;;;;;5060690;28;20036;-70
2023/02/18 08:33:29;;;;;;;154.45;38.17;;;7.20;99.90;;;;;;5059111;28;20032;-71
2023/02/18 08:35:55;;;;;;;154.88;36.42;;;7.30;99.90;;;;;;5061933;28;20442;-71
2023/02/18 08:38:22;;;;;;;123.07;33.05;;;7.40;99.90;;;;;;5063406;28;20025;-70
2023/02/18 08:40:48;;;;;;;146.32;35.65;;;7.60;99.90;;;;;;5060217;28;20044;-71
2023/02/18 08:43:15;;;;;;;118.75;29.52;;;7.70;99.90;;;;;;5055200;28;20029;-69
2023/02/18 08:45:41;;;;;;;98.15;23.80;;;7.80;99.90;;;;;;5059797;28;20563;-71
2023/02/18 08:48:08;;;;;;;104.15;24.83;;;8.00;99.90;;;;;;5057469;28;20120;-71
2023/02/18 08:50:34;;;;;;;92.72;22.73;;;8.10;99.90;;;;;;5058381;28;20033;-70
2023/02/18 08:53:02;;;;;;;92.63;21.33;;;8.20;99.90;;;;;;5058833;28;20024;-71
2023/02/18 08:55:28;;;;;;;86.93;19.02;;;8.30;99.90;;;;;;5059676;28;20091;-70
2023/02/18 08:57:54;;;;;;;103.68;18.45;;;8.40;99.90;;;;;;5061575;28;20017;-72
2023/02/18 09:00:20;;;;;;;63.90;15.15;;;8.40;99.90;;;;;;5059475;28;20613;-71
2023/02/18 09:02:46;;;;;;;41.75;10.55;;;8.50;99.90;;;;;;5059701;28;20778;-71
2023/02/18 09:05:13;;;;;;;52.10;12.35;;;8.60;99.90;;;;;;5059594;28;20029;-72
2023/02/18 09:07:39;;;;;;;40.17;10.15;;;8.70;99.90;;;;;;5059020;28;20123;-69
2023/02/18 09:10:06;;;;;;;39.22;10.65;;;8.80;99.90;;;;;;5058883;28;20409;-72
2023/02/18 09:12:32;;;;;;;34.08;9.35;;;8.80;99.90;;;;;;5061211;28;20035;-71
2023/02/18 09:14:59;;;;;;;39.55;9.73;;;9.00;99.90;;;;;;5062458;28;20043;-69
2023/02/18 09:17:25;;;;;;;30.08;8.07;;;9.00;99.90;;;;;;5062335;28;20028;-71
2023/02/18 09:19:51;;;;;;;32.30;8.15;;;9.10;99.90;;;;;;5056315;28;20050;-71
2023/02/18 09:22:16;;;;;;;21.77;6.03;;;9.10;99.90;;;;;;5058790;28;20052;-71
2023/02/18 09:24:42;;;;;;;22.90;6.97;;;9.20;99.90;;;;;;5053849;28;20155;-72
2023/02/18 09:27:08;;;;;;;22.50;6.70;;;9.20;99.90;;;;;;5057904;28;20041;-72
2023/02/18 09:29:36;;;;;;;28.42;9.35;;;9.30;99.90;;;;;;5058483;28;20037;-70
2023/02/18 09:32:03;;;;;;;20.38;6.65;;;9.30;99.90;;;;;;5058743;28;20111;-74
2023/02/18 09:34:29;;;;;;;20.02;5.45;;;9.30;99.90;;;;;;5059661;28;20031;-69
2023/02/18 09:36:54;;;;;;;18.92;5.65;;;9.30;99.90;;;;;;5060271;28;20025;-69
2023/02/18 09:39:20;;;;;;;16.48;6.00;;;9.40;99.90;;;;;;5062381;28;20033;-72
2023/02/18 09:41:55;;;;;;;14.85;6.00;;;9.40;99.90;;;;;;5060386;28;20017;-70
2023/02/18 09:44:24;;;;;;;13.13;5.13;;;9.40;99.90;;;;;;5061288;28;20032;-69
2023/02/18 09:47:11;;;;;;;11.02;4.32;;;9.40;99.90;;;;;;5060963;28;20043;-70
2023/02/18 09:49:59;;;;;;;14.35;4.85;;;9.40;99.90;;;;;;5059674;28;20033;-74
2023/02/18 09:52:31;;;;;;;16.15;6.18;;;9.50;99.90;;;;;;5057736;28;20113;-71
2023/02/18 09:54:57;;;;;;;14.38;5.63;;;9.50;99.90;;;;;;5060889;28;20025;-71
2023/02/18 09:57:24;;;;;;;13.30;5.82;;;9.50;99.90;;;;;;5059449;28;20029;-72
2023/02/18 09:59:59;;;;;;;18.15;6.57;;;9.60;99.90;;;;;;5057435;28;20029;-72
2023/02/18 10:02:25;;;;;;;15.00;6.05;;;9.60;99.90;;;;;;5056230;28;20159;-72
2023/02/18 10:04:53;;;;;;;14.75;6.07;;;9.60;99.90;;;;;;5059898;28;20110;-70
2023/02/18 10:07:33;;;;;;;16.02;6.50;;;9.60;99.90;;;;;;5058402;28;20044;-70
2023/02/18 10:10:10;;;;;;;14.77;5.95;;;9.60;99.90;;;;;;5059958;28;20053;-71
2023/02/18 10:12:36;;;;;;;20.80;6.35;;;9.60;99.90;;;;;;5059983;28;20413;-70
2023/02/18 10:15:02;;;;;;;17.77;6.45;;;9.70;99.90;;;;;;5058824;28;20036;-71
2023/02/18 10:17:31;;;;;;;15.50;6.25;;;9.70;99.90;;;;;;5059830;28;20029;-70
2023/02/18 10:19:59;;;;;;;16.65;6.75;;;9.60;99.90;;;;;;5072927;28;20390;-71
2023/02/18 10:22:26;;;;;;;16.45;6.57;;;9.70;99.90;;;;;;5060945;28;20032;-71
2023/02/18 10:25:02;;;;;;;16.05;6.43;;;9.70;99.90;;;;;;5058104;28;20099;-69
2023/02/18 10:27:31;;;;;;;17.55;7.10;;;9.70;99.90;;;;;;5051513;28;20051;-72
2023/02/18 10:30:16;;;;;;;17.48;7.30;;;9.60;99.90;;;;;;5055740;28;20033;-70
2023/02/18 10:32:45;;;;;;;16.63;7.35;;;9.60;99.90;;;;;;5056373;28;20025;-72
2023/02/18 10:35:16;;;;;;;20.48;7.78;;;9.60;99.90;;;;;;5057880;28;20075;-71
2023/02/18 10:37:51;;;;;;;26.17;11.23;;;9.60;99.90;;;;;;5058841;28;20025;-71
2023/02/18 10:40:48;;;;;;;24.17;10.23;;;9.60;99.90;;;;;;5058496;28;20058;-71
2023/02/18 10:43:28;;;;;;;31.42;13.05;;;9.60;99.90;;;;;;5057114;28;20091;-71
2023/02/18 10:46:18;;;;;;;31.15;14.38;;;9.60;99.90;;;;;;5060008;28;20061;-70
2023/02/18 10:49:10;;;;;;;25.15;12.13;;;9.60;99.90;;;;;;5058751;28;20336;-71
2023/02/18 10:51:41;;;;;;;25.35;11.02;;;9.60;99.90;;;;;;5056432;28;20119;-72
2023/02/18 10:54:07;;;;;;;26.80;10.65;;;9.60;99.90;;;;;;5058980;28;20093;-73
2023/02/18 10:56:47;;;;;;;22.40;8.90;;;9.60;99.90;;;;;;5059568;28;20111;-71
2023/02/18 10:59:26;;;;;;;25.90;9.07;;;9.60;99.90;;;;;;5059601;28;20084;-72
2023/02/18 11:02:04;;;;;;;23.67;10.10;;;9.60;99.90;;;;;;5060682;28;20103;-70
2023/02/18 11:04:39;;;;;;;24.42;9.38;;;9.60;99.90;;;;;;5059281;28;20043;-72
2023/02/18 11:07:11;;;;;;;18.48;8.45;;;9.70;99.90;;;;;;5058806;28;20109;-72
2023/02/18 11:09:48;;;;;;;18.63;6.93;;;9.60;99.90;;;;;;5060178;28;20553;-73
2023/02/18 11:12:19;;;;;;;17.15;6.53;;;9.60;99.90;;;;;;5058863;28;20503;-76
2023/02/18 11:15:08;;;;;;;14.32;5.28;;;9.60;99.90;;;;;;5058603;28;20024;-73
2023/02/18 11:17:37;;;;;;;14.05;6.22;;;9.70;99.90;;;;;;5047878;28;20033;-72
2023/02/18 11:20:21;;;;;;;9.73;4.57;;;9.60;99.90;;;;;;5058719;28;20028;-73
2023/02/18 11:22:48;;;;;;;14.70;6.30;;;9.60;99.90;;;;;;5059819;28;20041;-74
2023/02/18 11:25:23;;;;;;;11.70;5.07;;;9.60;99.90;;;;;;5059171;28;20048;-73
2023/02/18 11:28:20;;;;;;;14.25;5.28;;;9.60;99.90;;;;;;5059997;28;20037;-72
2023/02/18 11:30:52;;;;;;;10.75;4.55;;;9.60;99.90;;;;;;5049397;28;20123;-71
2023/02/18 11:33:34;;;;;;;10.60;4.13;;;9.60;99.90;;;;;;5057955;28;20063;-74
2023/02/18 11:36:14;;;;;;;9.48;3.88;;;9.70;99.90;;;;;;5059368;28;20084;-74
2023/02/18 11:39:03;;;;;;;11.48;3.95;;;9.60;99.90;;;;;;5059189;28;20478;-71
2023/02/18 11:41:41;;;;;;;10.80;3.40;;;9.60;99.90;;;;;;5059570;28;20067;-72
2023/02/18 11:44:32;;;;;;;6.47;3.17;;;9.60;99.90;;;;;;5057805;28;20104;-73
2023/02/18 11:47:11;;;;;;;7.60;3.20;;;9.60;99.90;;;;;;5061654;28;20067;-71
2023/02/18 11:49:37;;;;;;;5.55;3.10;;;9.60;99.90;;;;;;5063373;28;20024;-73
2023/02/18 11:52:25;;;;;;;14.77;4.20;;;9.60;99.90;;;;;;5064008;28;20070;-71
2023/02/18 11:55:19;;;;;;;14.50;4.70;;;9.70;99.90;;;;;;5042868;28;20120;-73
2023/02/18 11:58:01;;;;;;;10.82;3.75;;;9.60;99.90;;;;;;5043827;28;20072;-72
2023/02/18 12:00:59;;;;;;;8.80;3.83;;;9.60;99.90;;;;;;5043680;28;20037;-71
2023/02/18 12:03:51;;;;;;;7.07;3.80;;;9.60;99.90;;;;;;5042239;28;20087;-73
2023/02/18 12:06:23;;;;;;;13.32;4.50;;;9.60;99.90;;;;;;5041900;28;20033;-72
2023/02/18 12:09:17;;;;;;;17.92;5.47;;;9.70;99.90;;;;;;5040712;28;20434;-73
2023/02/18 12:11:57;;;;;;;19.52;6.03;;;9.60;99.90;;;;;;5035382;28;20057;-71
2023/02/18 12:14:24;;;;;;;20.55;5.57;;;9.60;99.90;;;;;;5039633;28;20122;-70
2023/02/18 12:17:24;;;;;;;11.48;4.18;;;9.60;99.90;;;;;;5043270;28;20026;-72
2023/02/18 12:20:02;;;;;;;14.18;5.07;;;9.70;99.90;;;;;;5042432;28;20037;-71
2023/02/18 12:22:42;;;;;;;17.45;5.43;;;9.60;99.90;;;;;;5042221;28;20029;-73
2023/02/18 12:25:23;;;;;;;16.05;6.05;;;9.60;99.90;;;;;;5042922;28;20128;-72
2023/02/18 12:28:10;;;;;;;17.50;5.85;;;9.70;99.90;;;;;;5043572;28;20045;-73
2023/02/18 12:30:57;;;;;;;18.27;6.03;;;9.60;99.90;;;;;;5041531;28;20044;-73
2023/02/18 12:33:50;;;;;;;21.45;6.00;;;9.60;99.90;;;;;;5042914;28;20032;-73
2023/02/18 12:36:28;;;;;;;22.42;6.45;;;9.70;99.90;;;;;;5041503;28;20077;-72
2023/02/18 12:39:28;;;;;;;21.70;6.30;;;9.60;99.90;;;;;;5038302;28;20026;-72
2023/02/18 12:42:21;;;;;;;20.15;4.97;;;9.70;99.90;;;;;;5042474;28;20443;-75
2023/02/18 12:45:13;;;;;;;20.17;5.88;;;9.60;99.90;;;;;;5040279;28;20068;-73
2023/02/18 12:47:58;;;;;;;22.30;6.47;;;9.60;99.90;;;;;;5041988;28;20034;-73
2023/02/18 12:50:52;;;;;;;30.98;6.10;;;9.70;99.90;;;;;;5044945;28;20048;-75
2023/02/18 12:53:55;;;;;;;25.55;5.75;;;9.70;99.90;;;;;;5042051;28;20087;-73
2023/02/18 12:56:39;;;;;;;18.38;5.68;;;9.70;99.90;;;;;;5040926;28;20044;-75
2023/02/18 12:59:15;;;;;;;28.63;6.43;;;9.70;99.90;;;;;;5041256;28;20441;-74
2023/02/18 13:01:55;;;;;;;28.48;6.30;;;9.70;99.90;;;;;;5042633;28;20604;-74
2023/02/18 13:04:44;;;;;;;25.70;6.05;;;9.70;99.90;;;;;;5042409;28;20067;-73